createdAt,value
2019-01-14T00:00:45.493Z,986.46
2019-01-14T00:01:45.424Z,986.49
2019-01-14T00:02:45.409Z,986.53
2019-01-14T00:03:45.398Z,986.56
2019-01-14T00:04:45.392Z,986.57
2019-01-14T00:05:45.384Z,986.51
2019-01-14T00:06:45.402Z,986.55
2019-01-14T00:07:45.363Z,986.61
2019-01-14T00:08:45.366Z,986.56
2019-01-14T00:09:45.350Z,986.63
2019-01-14T00:10:45.332Z,986.65
2019-01-14T00:11:45.327Z,986.63
2019-01-14T00:12:45.345Z,986.78
2019-01-14T00:13:45.301Z,986.73
2019-01-14T00:14:45.325Z,986.72
2019-01-14T00:15:45.268Z,986.73
2019-01-14T00:16:45.270Z,986.78
2019-01-14T00:17:45.256Z,986.72
2019-01-14T00:18:45.280Z,986.79
2019-01-14T00:19:45.251Z,986.80
2019-01-14T00:20:45.219Z,986.91
2019-01-14T00:21:45.205Z,986.80
2019-01-14T00:22:45.201Z,986.86
2019-01-14T00:23:45.199Z,986.86
2019-01-14T00:24:45.215Z,986.88
2019-01-14T00:25:45.169Z,986.80
2019-01-14T00:26:45.158Z,986.88
2019-01-14T00:27:45.144Z,986.87
2019-01-14T00:28:45.138Z,987.01
2019-01-14T00:29:45.130Z,986.89
2019-01-14T00:30:45.162Z,986.78
2019-01-14T00:31:45.102Z,986.97
2019-01-14T00:32:45.091Z,986.83
2019-01-14T00:33:45.087Z,986.81
2019-01-14T00:34:45.066Z,986.86
2019-01-14T00:35:45.063Z,986.91
2019-01-14T00:36:45.075Z,986.97
2019-01-14T00:37:45.049Z,986.88
2019-01-14T00:38:45.029Z,986.97
2019-01-14T00:39:45.021Z,986.93
2019-01-14T00:40:45.014Z,986.86
2019-01-14T00:41:45.015Z,986.87
2019-01-14T00:42:45.051Z,987.07
2019-01-14T00:43:45.011Z,986.97
2019-01-14T00:44:44.964Z,986.95
2019-01-14T00:45:44.964Z,986.95
2019-01-14T00:46:44.941Z,987.01
2019-01-14T00:47:44.960Z,986.94
2019-01-14T00:48:44.977Z,987.06
2019-01-14T00:49:44.908Z,987.05
2019-01-14T00:50:44.894Z,987.19
2019-01-14T00:51:44.895Z,987.10
2019-01-14T00:52:44.881Z,987.07
2019-01-14T00:53:44.898Z,987.11
2019-01-14T00:54:44.908Z,987.00
2019-01-14T00:55:44.838Z,987.23
2019-01-14T00:56:44.838Z,987.16
2019-01-14T00:57:44.839Z,987.12
2019-01-14T00:58:44.807Z,987.08
2019-01-14T00:59:44.805Z,987.21
2019-01-14T01:00:44.855Z,987.25
2019-01-14T01:01:44.793Z,987.37
2019-01-14T01:02:44.772Z,987.26
2019-01-14T01:03:44.755Z,987.27
2019-01-14T01:04:44.744Z,987.16
2019-01-14T01:05:44.730Z,987.15
2019-01-14T01:06:44.764Z,987.22
2019-01-14T01:07:44.741Z,987.10
2019-01-14T01:08:44.723Z,987.39
2019-01-14T01:09:44.690Z,987.30
2019-01-14T01:10:44.689Z,987.47
2019-01-14T01:11:44.684Z,987.34
2019-01-14T01:12:44.713Z,987.40
2019-01-14T01:13:44.649Z,987.39
2019-01-14T01:14:44.634Z,987.36
2019-01-14T01:15:44.634Z,987.37
2019-01-14T01:16:44.629Z,987.32
2019-01-14T01:17:44.616Z,987.46
2019-01-14T01:18:44.646Z,987.54
2019-01-14T01:19:44.595Z,987.40
2019-01-14T01:20:44.567Z,987.37
2019-01-14T01:21:44.564Z,987.45
2019-01-14T01:22:44.561Z,987.42
2019-01-14T01:23:44.540Z,987.55
2019-01-14T01:24:44.624Z,987.40
2019-01-14T01:25:44.515Z,987.28
2019-01-14T01:26:44.503Z,987.44
2019-01-14T01:27:44.507Z,987.49
2019-01-14T01:28:44.498Z,987.43
2019-01-14T01:29:44.495Z,987.53
2019-01-14T01:30:44.500Z,987.41
2019-01-14T01:31:44.467Z,987.51
2019-01-14T01:32:44.442Z,987.56
2019-01-14T01:33:44.475Z,987.64
2019-01-14T01:34:44.427Z,987.56
2019-01-14T01:35:44.414Z,987.75
2019-01-14T01:36:44.597Z,987.67
2019-01-14T01:37:44.386Z,987.68
2019-01-14T01:38:44.380Z,987.70
2019-01-14T01:39:44.367Z,987.65
2019-01-14T01:40:44.393Z,987.76
2019-01-14T01:41:44.354Z,987.79
2019-01-14T01:42:44.383Z,987.77
2019-01-14T01:43:44.322Z,987.71
2019-01-14T01:44:44.318Z,987.80
2019-01-14T01:45:44.311Z,987.97
2019-01-14T01:46:44.289Z,987.84
2019-01-14T01:47:44.310Z,987.82
2019-01-14T01:48:44.297Z,987.92
2019-01-14T01:49:44.289Z,987.88
2019-01-14T01:50:44.282Z,987.97
2019-01-14T01:51:44.253Z,987.99
2019-01-14T01:52:44.281Z,987.90
2019-01-14T01:53:44.226Z,987.88
2019-01-14T01:54:44.262Z,987.90
2019-01-14T01:55:44.192Z,987.88
2019-01-14T01:56:44.198Z,987.95
2019-01-14T01:57:44.182Z,988.01
2019-01-14T01:58:44.163Z,987.92
2019-01-14T01:59:44.202Z,987.90
2019-01-14T02:00:44.198Z,988.04
2019-01-14T02:01:44.127Z,988.04
2019-01-14T02:02:44.116Z,987.99
2019-01-14T02:03:44.111Z,988.12
2019-01-14T02:04:44.089Z,987.97
2019-01-14T02:05:44.083Z,988.04
2019-01-14T02:06:44.119Z,988.06
2019-01-14T02:07:44.058Z,988.06
2019-01-14T02:08:44.045Z,988.04
2019-01-14T02:09:44.043Z,988.12
2019-01-14T02:10:44.028Z,988.02
2019-01-14T02:11:44.028Z,988.09
2019-01-14T02:12:44.056Z,988.11
2019-01-14T02:13:43.991Z,988.20
2019-01-14T02:14:43.994Z,988.14
2019-01-14T02:15:43.979Z,988.16
2019-01-14T02:16:43.958Z,988.12
2019-01-14T02:17:43.948Z,988.41
2019-01-14T02:18:43.986Z,988.36
2019-01-14T02:19:43.937Z,988.20
2019-01-14T02:20:43.922Z,988.33
2019-01-14T02:21:43.956Z,988.20
2019-01-14T02:22:43.912Z,988.17
2019-01-14T02:23:43.911Z,988.34
2019-01-14T02:24:43.944Z,988.29
2019-01-14T02:25:43.877Z,988.35
2019-01-14T02:26:43.874Z,988.27
2019-01-14T02:27:43.859Z,988.25
2019-01-14T02:28:43.859Z,988.32
2019-01-14T02:29:43.831Z,988.30
2019-01-14T02:30:43.869Z,988.35
2019-01-14T02:31:43.797Z,988.27
2019-01-14T02:32:43.808Z,988.25
2019-01-14T02:33:43.775Z,988.30
2019-01-14T02:34:43.769Z,988.25
2019-01-14T02:35:43.753Z,988.32
2019-01-14T02:36:48.335Z,988.34
2019-01-14T02:37:44.748Z,988.41
2019-01-14T02:38:43.732Z,988.45
2019-01-14T02:39:43.712Z,988.49
2019-01-14T02:40:43.712Z,988.56
2019-01-14T02:41:43.695Z,988.56
2019-01-14T02:42:43.759Z,988.57
2019-01-14T02:43:43.671Z,988.68
2019-01-14T02:44:43.682Z,988.68
2019-01-14T02:45:43.651Z,988.60
2019-01-14T02:46:43.639Z,988.63
2019-01-14T02:47:43.626Z,988.55
2019-01-14T02:48:43.702Z,988.80
2019-01-14T02:49:43.606Z,988.68
2019-01-14T02:50:43.615Z,988.66
2019-01-14T02:51:43.583Z,988.57
2019-01-14T02:52:43.571Z,988.41
2019-01-14T02:53:43.565Z,988.52
2019-01-14T02:54:43.614Z,988.50
2019-01-14T02:55:43.540Z,988.65
2019-01-14T02:56:43.526Z,988.43
2019-01-14T02:57:43.518Z,988.52
2019-01-14T02:58:43.511Z,988.50
2019-01-14T02:59:43.496Z,988.59
2019-01-14T03:00:43.534Z,988.58
2019-01-14T03:01:43.475Z,988.55
2019-01-14T03:02:43.464Z,988.53
2019-01-14T03:03:43.458Z,988.63
2019-01-14T03:04:43.442Z,988.56
2019-01-14T03:05:43.438Z,988.59
2019-01-14T03:06:43.484Z,988.61
2019-01-14T03:07:43.462Z,988.60
2019-01-14T03:08:43.399Z,988.70
2019-01-14T03:09:43.387Z,988.58
2019-01-14T03:10:43.377Z,988.65
2019-01-14T03:11:43.387Z,988.60
2019-01-14T03:12:43.417Z,988.70
2019-01-14T03:13:43.346Z,988.65
2019-01-14T03:14:43.338Z,988.68
2019-01-14T03:15:43.321Z,988.69
2019-01-14T03:16:43.312Z,988.60
2019-01-14T03:17:43.304Z,988.83
2019-01-14T03:18:43.350Z,988.59
2019-01-14T03:19:43.279Z,988.69
2019-01-14T03:20:43.268Z,988.67
2019-01-14T03:21:43.261Z,988.79
2019-01-14T03:22:43.246Z,988.81
2019-01-14T03:23:43.239Z,988.62
2019-01-14T03:24:43.402Z,988.65
2019-01-14T03:25:43.213Z,988.63
2019-01-14T03:26:43.205Z,988.54
2019-01-14T03:27:43.191Z,988.70
2019-01-14T03:28:43.180Z,988.70
2019-01-14T03:29:43.170Z,988.64
2019-01-14T03:30:43.210Z,988.67
2019-01-14T03:31:43.149Z,988.54
2019-01-14T03:32:43.141Z,988.64
2019-01-14T03:33:43.130Z,988.68
2019-01-14T03:34:43.119Z,988.58
2019-01-14T03:35:43.105Z,988.57
2019-01-14T03:36:43.158Z,988.68
2019-01-14T03:37:43.084Z,988.68
2019-01-14T03:38:43.073Z,988.79
2019-01-14T03:39:43.065Z,988.74
2019-01-14T03:40:43.053Z,988.67
2019-01-14T03:41:43.042Z,988.69
2019-01-14T03:42:43.097Z,988.71
2019-01-14T03:43:43.020Z,988.79
2019-01-14T03:44:43.009Z,988.87
2019-01-14T03:45:42.999Z,988.84
2019-01-14T03:46:42.991Z,988.82
2019-01-14T03:47:42.976Z,988.86
2019-01-14T03:48:43.051Z,988.82
2019-01-14T03:49:42.956Z,988.89
2019-01-14T03:50:42.947Z,988.80
2019-01-14T03:51:42.934Z,988.79
2019-01-14T03:52:42.923Z,988.80
2019-01-14T03:53:42.921Z,988.77
2019-01-14T03:54:43.115Z,988.90
2019-01-14T03:55:42.890Z,988.85
2019-01-14T03:56:42.880Z,988.59
2019-01-14T03:57:42.874Z,988.82
2019-01-14T03:58:42.861Z,989.07
2019-01-14T03:59:42.851Z,988.85
2019-01-14T04:00:42.910Z,988.96
2019-01-14T04:01:42.827Z,988.88
2019-01-14T04:02:42.815Z,988.96
2019-01-14T04:03:42.807Z,988.96
2019-01-14T04:04:42.794Z,989.15
2019-01-14T04:05:42.783Z,989.00
2019-01-14T04:06:42.821Z,989.02
2019-01-14T04:07:42.764Z,989.04
2019-01-14T04:08:42.754Z,988.99
2019-01-14T04:09:42.738Z,989.21
2019-01-14T04:10:42.728Z,989.13
2019-01-14T04:11:42.721Z,989.08
2019-01-14T04:12:42.926Z,989.12
2019-01-14T04:13:42.698Z,989.10
2019-01-14T04:14:42.688Z,989.13
2019-01-14T04:15:42.691Z,989.07
2019-01-14T04:16:42.663Z,989.20
2019-01-14T04:17:42.658Z,989.18
2019-01-14T04:18:42.718Z,989.18
2019-01-14T04:19:42.635Z,989.19
2019-01-14T04:20:42.626Z,989.23
2019-01-14T04:21:42.609Z,989.20
2019-01-14T04:22:42.603Z,989.05
2019-01-14T04:23:42.593Z,989.19
2019-01-14T04:24:42.634Z,989.24
2019-01-14T04:25:42.567Z,989.32
2019-01-14T04:26:42.561Z,989.40
2019-01-14T04:27:42.552Z,989.44
2019-01-14T04:28:42.535Z,989.57
2019-01-14T04:29:42.526Z,989.56
2019-01-14T04:30:42.580Z,989.57
2019-01-14T04:31:42.508Z,989.50
2019-01-14T04:32:42.509Z,989.53
2019-01-14T04:33:42.480Z,989.62
2019-01-14T04:34:42.472Z,989.60
2019-01-14T04:35:42.466Z,989.38
2019-01-14T04:36:42.535Z,989.52
2019-01-14T04:37:42.451Z,989.53
2019-01-14T04:38:42.426Z,989.45
2019-01-14T04:39:42.416Z,989.55
2019-01-14T04:40:42.407Z,989.58
2019-01-14T04:41:42.410Z,989.45
2019-01-14T04:42:42.442Z,989.60
2019-01-14T04:43:42.372Z,989.54
2019-01-14T04:44:42.364Z,989.53
2019-01-14T04:45:42.354Z,989.56
2019-01-14T04:46:42.352Z,989.63
2019-01-14T04:47:42.358Z,989.58
2019-01-14T04:48:42.361Z,989.61
2019-01-14T04:49:42.308Z,989.54
2019-01-14T04:50:42.298Z,989.63
2019-01-14T04:51:42.284Z,989.62
2019-01-14T04:52:42.283Z,989.60
2019-01-14T04:53:42.268Z,989.65
2019-01-14T04:54:42.321Z,989.67
2019-01-14T04:55:42.241Z,989.65
2019-01-14T04:56:42.231Z,989.64
2019-01-14T04:57:42.221Z,989.64
2019-01-14T04:58:42.211Z,989.69
2019-01-14T04:59:42.199Z,989.69
2019-01-14T05:00:42.240Z,989.67
2019-01-14T05:01:42.186Z,989.77
2019-01-14T05:02:42.165Z,989.71
2019-01-14T05:03:42.162Z,989.75
2019-01-14T05:04:42.146Z,989.76
2019-01-14T05:05:42.139Z,989.69
2019-01-14T05:06:42.191Z,989.63
2019-01-14T05:07:42.123Z,989.68
2019-01-14T05:08:42.102Z,989.77
2019-01-14T05:09:42.092Z,989.72
2019-01-14T05:10:42.078Z,989.73
2019-01-14T05:11:42.071Z,989.74
2019-01-14T05:12:42.127Z,989.71
2019-01-14T05:13:42.047Z,989.73
2019-01-14T05:14:42.036Z,989.74
2019-01-14T05:15:42.027Z,989.77
2019-01-14T05:16:42.013Z,989.78
2019-01-14T05:17:42.005Z,989.70
2019-01-14T05:18:42.070Z,989.75
2019-01-14T05:19:41.986Z,989.77
2019-01-14T05:20:41.970Z,989.85
2019-01-14T05:21:41.971Z,989.85
2019-01-14T05:22:41.979Z,989.88
2019-01-14T05:23:41.942Z,989.85
2019-01-14T05:24:41.992Z,989.92
2019-01-14T05:25:41.921Z,989.88
2019-01-14T05:26:41.909Z,989.84
2019-01-14T05:27:41.904Z,989.93
2019-01-14T05:28:41.886Z,989.86
2019-01-14T05:29:41.875Z,989.86
2019-01-14T05:30:41.925Z,989.87
2019-01-14T05:31:42.009Z,989.89
2019-01-14T05:32:41.846Z,989.89
2019-01-14T05:33:41.830Z,989.95
2019-01-14T05:34:41.821Z,989.83
2019-01-14T05:35:41.819Z,990.01
2019-01-14T05:36:41.884Z,989.93
2019-01-14T05:37:41.788Z,989.97
2019-01-14T05:38:41.781Z,989.99
2019-01-14T05:39:41.769Z,989.98
2019-01-14T05:40:41.775Z,990.03
2019-01-14T05:41:41.743Z,990.02
2019-01-14T05:42:41.798Z,990.08
2019-01-14T05:43:41.727Z,990.06
2019-01-14T05:44:41.714Z,990.09
2019-01-14T05:45:41.705Z,990.08
2019-01-14T05:46:41.693Z,990.12
2019-01-14T05:47:41.680Z,990.12
2019-01-14T05:48:41.738Z,990.17
2019-01-14T05:49:41.662Z,990.15
2019-01-14T05:50:41.647Z,990.14
2019-01-14T05:51:41.637Z,990.15
2019-01-14T05:52:41.624Z,990.15
2019-01-14T05:53:41.616Z,990.18
2019-01-14T05:54:41.674Z,990.14
2019-01-14T05:55:41.591Z,990.15
2019-01-14T05:56:41.582Z,990.11
2019-01-14T05:57:41.607Z,990.16
2019-01-14T05:58:41.559Z,990.02
2019-01-14T05:59:41.555Z,990.14
2019-01-14T06:00:41.592Z,990.17
2019-01-14T06:01:41.528Z,990.16
2019-01-14T06:02:41.518Z,990.17
2019-01-14T06:03:41.505Z,990.28
2019-01-14T06:04:41.499Z,990.24
2019-01-14T06:05:41.485Z,990.25
2019-01-14T06:06:41.542Z,990.28
2019-01-14T06:07:44.960Z,990.28
2019-01-14T06:08:41.452Z,990.29
2019-01-14T06:09:41.440Z,990.41
2019-01-14T06:10:41.433Z,990.35
2019-01-14T06:11:41.421Z,990.37
2019-01-14T06:12:41.479Z,990.43
2019-01-14T06:13:41.398Z,990.38
2019-01-14T06:14:41.388Z,990.39
2019-01-14T06:15:41.378Z,990.39
2019-01-14T06:16:41.368Z,990.49
2019-01-14T06:17:41.357Z,990.51
2019-01-14T06:18:41.405Z,990.51
2019-01-14T06:19:41.341Z,990.51
2019-01-14T06:20:41.327Z,990.55
2019-01-14T06:21:42.547Z,990.54
2019-01-14T06:22:41.306Z,990.61
2019-01-14T06:23:41.289Z,990.61
2019-01-14T06:24:41.345Z,990.62
2019-01-14T06:25:41.275Z,990.53
2019-01-14T06:26:41.258Z,990.57
2019-01-14T06:27:41.249Z,990.57
2019-01-14T06:28:41.239Z,990.51
2019-01-14T06:29:41.225Z,990.56
2019-01-14T06:30:41.415Z,990.65
2019-01-14T06:31:41.206Z,990.65
2019-01-14T06:32:41.195Z,990.59
2019-01-14T06:33:41.183Z,990.70
2019-01-14T06:34:41.173Z,990.69
2019-01-14T06:35:41.164Z,990.71
2019-01-14T06:36:41.209Z,990.75
2019-01-14T06:37:41.141Z,990.76
2019-01-14T06:38:41.127Z,990.78
2019-01-14T06:39:41.119Z,990.70
2019-01-14T06:40:41.106Z,990.77
2019-01-14T06:41:41.096Z,990.70
2019-01-14T06:42:41.153Z,990.70
2019-01-14T06:43:41.076Z,990.76
2019-01-14T06:44:41.062Z,990.73
2019-01-14T06:45:41.054Z,990.72
2019-01-14T06:46:41.046Z,990.72
2019-01-14T06:47:41.031Z,990.84
2019-01-14T06:48:41.065Z,990.77
2019-01-14T06:49:41.008Z,990.75
2019-01-14T06:50:41.001Z,990.81
2019-01-14T06:51:40.989Z,990.78
2019-01-14T06:52:40.977Z,990.89
2019-01-14T06:53:40.967Z,990.83
2019-01-14T06:54:41.028Z,990.88
2019-01-14T06:55:40.945Z,990.80
2019-01-14T06:56:40.935Z,990.89
2019-01-14T06:57:40.933Z,990.86
2019-01-14T06:58:40.915Z,990.92
2019-01-14T06:59:41.117Z,990.99
2019-01-14T07:00:40.943Z,990.91
2019-01-14T07:01:40.881Z,990.94
2019-01-14T07:02:40.868Z,990.99
2019-01-14T07:03:40.861Z,991.06
2019-01-14T07:04:40.849Z,990.97
2019-01-14T07:05:40.836Z,990.99
2019-01-14T07:06:41.438Z,991.14
2019-01-14T07:07:40.816Z,991.26
2019-01-14T07:08:40.806Z,991.17
2019-01-14T07:09:40.795Z,991.20
2019-01-14T07:10:40.786Z,991.24
2019-01-14T07:11:40.771Z,991.24
2019-01-14T07:12:40.890Z,991.37
2019-01-14T07:13:40.751Z,991.31
2019-01-14T07:14:40.739Z,991.32
2019-01-14T07:15:40.729Z,991.34
2019-01-14T07:16:40.719Z,991.37
2019-01-14T07:17:40.709Z,991.39
2019-01-14T07:18:40.753Z,991.28
2019-01-14T07:19:40.687Z,991.39
2019-01-14T07:20:40.675Z,991.40
2019-01-14T07:21:40.676Z,991.32
2019-01-14T07:22:40.654Z,991.39
2019-01-14T07:23:40.641Z,991.42
2019-01-14T07:24:40.678Z,991.42
2019-01-14T07:25:40.634Z,991.39
2019-01-14T07:26:40.610Z,991.49
2019-01-14T07:27:40.600Z,991.44
2019-01-14T07:28:40.588Z,991.50
2019-01-14T07:29:40.576Z,991.45
2019-01-14T07:30:40.608Z,991.47
2019-01-14T07:31:40.557Z,991.55
2019-01-14T07:32:40.571Z,991.52
2019-01-14T07:33:40.534Z,991.55
2019-01-14T07:34:40.628Z,991.53
2019-01-14T07:35:40.511Z,991.55
2019-01-14T07:36:40.554Z,991.58
2019-01-14T07:37:40.495Z,991.66
2019-01-14T07:38:40.493Z,991.62
2019-01-14T07:39:40.479Z,991.59
2019-01-14T07:40:40.478Z,991.70
2019-01-14T07:41:40.462Z,991.70
2019-01-14T07:42:40.483Z,991.63
2019-01-14T07:43:40.433Z,991.66
2019-01-14T07:44:40.429Z,991.76
2019-01-14T07:45:40.412Z,991.71
2019-01-14T07:46:40.403Z,991.69
2019-01-14T07:47:40.419Z,991.78
2019-01-14T07:48:40.407Z,991.71
2019-01-14T07:49:40.376Z,991.71
2019-01-14T07:50:40.362Z,991.79
2019-01-14T07:51:41.454Z,991.73
2019-01-14T07:52:40.337Z,991.81
2019-01-14T07:53:40.329Z,991.81
2019-01-14T07:54:40.358Z,991.85
2019-01-14T07:55:40.303Z,991.80
2019-01-14T07:56:40.294Z,991.78
2019-01-14T07:57:40.277Z,991.82
2019-01-14T07:58:40.281Z,991.90
2019-01-14T07:59:40.287Z,991.88
2019-01-14T08:00:40.282Z,991.83
2019-01-14T08:01:40.238Z,991.86
2019-01-14T08:02:40.227Z,991.91
2019-01-14T08:03:40.218Z,991.94
2019-01-14T08:04:40.271Z,992.01
2019-01-14T08:05:40.216Z,991.93
2019-01-14T08:06:40.217Z,991.95
2019-01-14T08:07:40.231Z,991.95
2019-01-14T08:08:40.159Z,992.06
2019-01-14T08:09:40.159Z,991.95
2019-01-14T08:10:40.138Z,991.95
2019-01-14T08:11:40.139Z,992.05
2019-01-14T08:12:40.153Z,992.02
2019-01-14T08:13:40.101Z,992.04
2019-01-14T08:14:42.749Z,992.00
2019-01-14T08:15:40.081Z,992.12
2019-01-14T08:16:40.073Z,992.14
2019-01-14T08:17:40.059Z,992.18
2019-01-14T08:18:40.080Z,992.13
2019-01-14T08:19:40.042Z,992.20
2019-01-14T08:20:40.042Z,992.24
2019-01-14T08:21:40.018Z,992.23
2019-01-14T08:22:40.005Z,992.31
2019-01-14T08:23:39.999Z,992.31
2019-01-14T08:24:40.011Z,992.27
2019-01-14T08:25:39.973Z,992.32
2019-01-14T08:26:39.972Z,992.33
2019-01-14T08:27:39.962Z,992.29
2019-01-14T08:28:39.963Z,992.35
2019-01-14T08:29:39.941Z,992.34
2019-01-14T08:30:39.973Z,992.27
2019-01-14T08:31:39.911Z,992.33
2019-01-14T08:32:39.909Z,992.36
2019-01-14T08:33:39.953Z,992.40
2019-01-14T08:34:39.883Z,992.43
2019-01-14T08:35:39.874Z,992.39
2019-01-14T08:36:39.927Z,992.40
2019-01-14T08:37:39.855Z,992.39
2019-01-14T08:38:39.844Z,992.41
2019-01-14T08:39:39.829Z,992.41
2019-01-14T08:40:39.845Z,992.37
2019-01-14T08:41:39.812Z,992.49
2019-01-14T08:42:39.840Z,992.38
2019-01-14T08:43:39.800Z,992.56
2019-01-14T08:44:39.805Z,992.42
2019-01-14T08:45:39.803Z,992.40
2019-01-14T08:46:39.790Z,992.50
2019-01-14T08:47:39.745Z,992.51
2019-01-14T08:48:40.091Z,992.41
2019-01-14T08:49:39.739Z,992.41
2019-01-14T08:50:39.709Z,992.55
2019-01-14T08:51:39.702Z,992.49
2019-01-14T08:52:39.691Z,992.51
2019-01-14T08:53:39.689Z,992.59
2019-01-14T08:54:39.708Z,992.63
2019-01-14T08:55:39.665Z,992.59
2019-01-14T08:56:39.645Z,992.53
2019-01-14T08:57:39.652Z,992.63
2019-01-14T08:58:39.615Z,992.63
2019-01-14T08:59:39.613Z,992.66
2019-01-14T09:00:39.628Z,992.65
2019-01-14T09:01:39.617Z,992.60
2019-01-14T09:02:39.587Z,992.57
2019-01-14T09:03:39.567Z,992.64
2019-01-14T09:04:39.551Z,992.69
2019-01-14T09:05:39.542Z,992.67
2019-01-14T09:06:39.569Z,992.71
2019-01-14T09:07:39.528Z,992.74
2019-01-14T09:08:39.508Z,992.74
2019-01-14T09:09:39.499Z,992.71
2019-01-14T09:10:39.487Z,992.70
2019-01-14T09:11:39.475Z,992.70
2019-01-14T09:12:39.660Z,992.71
2019-01-14T09:13:39.455Z,992.76
2019-01-14T09:14:39.467Z,992.73
2019-01-14T09:15:39.434Z,992.69
2019-01-14T09:16:39.422Z,992.69
2019-01-14T09:17:39.412Z,992.72
2019-01-14T09:18:39.437Z,992.81
2019-01-14T09:19:39.395Z,992.70
2019-01-14T09:20:39.400Z,992.73
2019-01-14T09:21:39.369Z,992.79
2019-01-14T09:22:39.358Z,992.79
2019-01-14T09:23:39.350Z,992.87
2019-01-14T09:24:39.379Z,992.83
2019-01-14T09:25:39.323Z,992.86
2019-01-14T09:26:39.332Z,992.83
2019-01-14T09:27:39.302Z,992.90
2019-01-14T09:28:39.294Z,993.05
2019-01-14T09:29:39.317Z,993.22
2019-01-14T09:30:39.304Z,993.34
2019-01-14T09:31:39.261Z,993.47
2019-01-14T09:32:39.265Z,993.43
2019-01-14T09:33:39.239Z,993.50
2019-01-14T09:34:39.229Z,993.45
2019-01-14T09:35:39.221Z,993.44
2019-01-14T09:36:39.245Z,993.49
2019-01-14T09:37:39.257Z,993.53
2019-01-14T09:38:39.205Z,993.57
2019-01-14T09:39:39.173Z,993.61
2019-01-14T09:40:39.163Z,993.66
2019-01-14T09:41:39.153Z,993.62
2019-01-14T09:42:39.170Z,993.67
2019-01-14T09:43:39.131Z,993.75
2019-01-14T09:44:39.147Z,993.73
2019-01-14T09:45:39.113Z,993.74
2019-01-14T09:46:39.132Z,993.77
2019-01-14T09:47:39.090Z,993.80
2019-01-14T09:48:39.115Z,993.78
2019-01-14T09:49:39.066Z,993.80
2019-01-14T09:50:39.065Z,993.79
2019-01-14T09:51:39.047Z,993.78
2019-01-14T09:52:39.042Z,993.77
2019-01-14T09:53:39.024Z,993.93
2019-01-14T09:54:39.089Z,993.97
2019-01-14T09:55:39.002Z,994.01
2019-01-14T09:56:39.028Z,994.07
2019-01-14T09:57:39.082Z,994.05
2019-01-14T09:58:38.969Z,994.14
2019-01-14T09:59:38.960Z,994.23
2019-01-14T10:00:39.035Z,994.24
2019-01-14T10:01:38.938Z,994.19
2019-01-14T10:02:38.944Z,994.24
2019-01-14T10:03:38.915Z,994.13
2019-01-14T10:04:38.904Z,994.10
2019-01-14T10:05:38.894Z,994.10
2019-01-14T10:06:38.925Z,994.07
2019-01-14T10:07:38.873Z,994.04
2019-01-14T10:08:43.092Z,993.98
2019-01-14T10:09:38.853Z,993.99
2019-01-14T10:10:38.840Z,994.01
2019-01-14T10:11:38.834Z,994.04
2019-01-14T10:12:38.856Z,994.04
2019-01-14T10:13:38.818Z,994.08
2019-01-14T10:14:38.843Z,994.01
2019-01-14T10:15:38.786Z,994.04
2019-01-14T10:16:38.789Z,994.09
2019-01-14T10:17:38.765Z,994.12
2019-01-14T10:18:38.788Z,994.14
2019-01-14T10:19:38.743Z,994.22
2019-01-14T10:20:38.751Z,994.26
2019-01-14T10:21:38.722Z,994.26
2019-01-14T10:22:38.727Z,994.20
2019-01-14T10:23:38.705Z,994.23
2019-01-14T10:24:38.731Z,994.24
2019-01-14T10:25:38.679Z,994.27
2019-01-14T10:26:38.685Z,994.26
2019-01-14T10:27:38.659Z,994.32
2019-01-14T10:28:38.650Z,994.26
2019-01-14T10:29:38.637Z,994.29
2019-01-14T10:30:38.660Z,994.31
2019-01-14T10:31:38.613Z,994.30
2019-01-14T10:32:39.445Z,994.36
2019-01-14T10:33:38.615Z,994.31
2019-01-14T10:34:38.581Z,994.36
2019-01-14T10:35:38.582Z,994.37
2019-01-14T10:36:38.587Z,994.36
2019-01-14T10:37:38.548Z,994.36
2019-01-14T10:38:38.556Z,994.45
2019-01-14T10:39:38.527Z,994.41
2019-01-14T10:40:38.516Z,994.44
2019-01-14T10:41:38.506Z,994.45
2019-01-14T10:42:38.531Z,994.49
2019-01-14T10:43:38.498Z,994.53
2019-01-14T10:44:38.475Z,994.52
2019-01-14T10:45:38.464Z,994.48
2019-01-14T10:46:38.452Z,994.53
2019-01-14T10:47:38.441Z,994.52
2019-01-14T10:48:38.467Z,994.48
2019-01-14T10:49:38.431Z,994.49
2019-01-14T10:50:38.411Z,994.49
2019-01-14T10:51:38.397Z,994.52
2019-01-14T10:52:38.387Z,994.59
2019-01-14T10:53:38.377Z,994.57
2019-01-14T10:54:38.409Z,994.58
2019-01-14T10:55:38.360Z,994.62
2019-01-14T10:56:38.344Z,994.55
2019-01-14T10:57:38.393Z,994.62
2019-01-14T10:58:38.325Z,994.61
2019-01-14T10:59:38.315Z,994.72
2019-01-14T11:00:38.337Z,994.73
2019-01-14T11:01:38.304Z,994.68
2019-01-14T11:02:38.312Z,994.78
2019-01-14T11:03:38.283Z,994.75
2019-01-14T11:04:38.258Z,994.70
2019-01-14T11:05:38.248Z,994.68
2019-01-14T11:06:38.306Z,994.75
2019-01-14T11:07:38.226Z,994.69
2019-01-14T11:08:38.228Z,994.61
2019-01-14T11:09:38.233Z,994.64
2019-01-14T11:10:38.193Z,994.68
2019-01-14T11:11:38.183Z,994.67
2019-01-14T11:12:38.202Z,994.66
2019-01-14T11:13:38.161Z,994.70
2019-01-14T11:14:38.166Z,994.65
2019-01-14T11:15:38.156Z,994.58
2019-01-14T11:16:38.127Z,994.58
2019-01-14T11:17:38.118Z,994.62
2019-01-14T11:18:38.155Z,994.63
2019-01-14T11:19:38.099Z,994.67
2019-01-14T11:20:38.088Z,994.71
2019-01-14T11:21:38.093Z,994.77
2019-01-14T11:22:38.074Z,994.76
2019-01-14T11:23:38.054Z,994.79
2019-01-14T11:24:38.077Z,994.68
2019-01-14T11:25:38.032Z,994.74
2019-01-14T11:26:38.020Z,994.76
2019-01-14T11:27:38.015Z,994.82
2019-01-14T11:28:37.999Z,994.76
2019-01-14T11:29:37.991Z,994.82
2019-01-14T11:30:38.102Z,994.74
2019-01-14T11:31:37.965Z,994.76
2019-01-14T11:32:37.955Z,994.76
2019-01-14T11:33:37.960Z,994.75
2019-01-14T11:34:37.947Z,994.80
2019-01-14T11:35:37.922Z,994.75
2019-01-14T11:36:37.945Z,994.78
2019-01-14T11:37:37.979Z,994.77
2019-01-14T11:38:37.895Z,994.83
2019-01-14T11:39:37.879Z,994.87
2019-01-14T11:40:37.870Z,994.82
2019-01-14T11:41:37.885Z,994.89
2019-01-14T11:42:37.910Z,994.87
2019-01-14T11:43:37.863Z,994.86
2019-01-14T11:44:37.837Z,994.89
2019-01-14T11:45:37.828Z,994.81
2019-01-14T11:46:37.855Z,994.79
2019-01-14T11:47:37.816Z,994.87
2019-01-14T11:48:37.830Z,994.85
2019-01-14T11:49:37.818Z,994.88
2019-01-14T11:50:37.781Z,994.76
2019-01-14T11:51:37.761Z,994.83
2019-01-14T11:52:37.758Z,994.83
2019-01-14T11:53:37.735Z,994.82
2019-01-14T11:54:37.805Z,994.82
2019-01-14T11:55:37.761Z,994.78
2019-01-14T11:56:37.746Z,994.77
2019-01-14T11:57:37.703Z,994.73
2019-01-14T11:58:37.682Z,994.85
2019-01-14T11:59:37.669Z,994.73
2019-01-14T12:00:37.735Z,994.73
2019-01-14T12:01:37.645Z,994.71
2019-01-14T12:02:39.625Z,994.67
2019-01-14T12:03:37.623Z,994.73
2019-01-14T12:04:37.633Z,994.76
2019-01-14T12:05:37.596Z,994.86
2019-01-14T12:06:37.631Z,995.03
2019-01-14T12:07:37.616Z,995.30
2019-01-14T12:08:37.598Z,995.38
2019-01-14T12:09:37.554Z,995.38
2019-01-14T12:10:37.545Z,995.30
2019-01-14T12:11:37.536Z,995.34
2019-01-14T12:12:37.588Z,995.45
2019-01-14T12:13:37.519Z,995.39
2019-01-14T12:14:37.642Z,995.45
2019-01-14T12:15:37.509Z,995.56
2019-01-14T12:16:37.486Z,995.44
2019-01-14T12:17:37.466Z,995.61
2019-01-14T12:18:37.508Z,995.59
2019-01-14T12:19:37.443Z,995.56
2019-01-14T12:20:37.433Z,995.59
2019-01-14T12:21:37.434Z,995.62
2019-01-14T12:22:37.411Z,995.63
2019-01-14T12:23:37.401Z,995.72
2019-01-14T12:24:37.440Z,995.71
2019-01-14T12:25:37.379Z,995.69
2019-01-14T12:26:37.375Z,995.75
2019-01-14T12:27:37.364Z,995.72
2019-01-14T12:28:37.356Z,995.85